• Join FlightAware (Why Join?)
  • Login
  • US Flag 
03:01PM EDT


 

Airport Tracker/Info


-or-


 

Live Flight TrackerFlight Track Log ✈ N2895W ✈ 27-May-2013 ✈ 9G3 - KDMW

Flight Track Log - Related Links

Times and Time Zones

All times are in EDT time to prevent confusion due to time zone crossing. See the N2895W flight status page for this flight to view local times or setup timezone preferences in your user account.

Time Position Orientation Groundspeed Altitude Reporting Facility
EDT Latitude Longitude Course Direction KTS MPH feet Rate Location/Type
09:40AM 42.6100 -78.2614 165° South 186 214 7,400  Level Cleveland Center
09:41AM 42.5617 -78.2433 165° South 186 214 7,400  Level Cleveland Center
09:42AM 42.5133 -78.2256 165° South 186 214 7,400  Level Cleveland Center
09:43AM 42.4669 -78.2047 162° South 186 214 7,400  Level Cleveland Center
09:44AM 42.4186 -78.1811 160° South 186 214 7,400  Level Cleveland Center
09:45AM 42.3703 -78.1606 163° South 186 214 7,400  Level Cleveland Center
09:46AM 42.3239 -78.1400 162° South 186 214 7,400  Level Cleveland Center
09:47AM 42.2756 -78.1192 162° South 186 214 7,400  Level Cleveland Center
09:48AM 42.2292 -78.0986 162° South 186 214 7,400  Level Cleveland Center
09:49AM 42.1828 -78.0781 162° South 186 214 7,400  Level Cleveland Center
09:50AM 42.1325 -78.0603 165° South 186 214 7,400  Level Cleveland Center
09:51AM 42.0861 -78.0397 162° South 186 214 7,400  Level Cleveland Center
09:52AM 42.0397 -78.0194 162° South 186 214 7,400  Level Cleveland Center
09:53AM 41.9936 -77.9989 162° South 186 214 7,400  Level Cleveland Center
09:54AM 41.9450 -77.9783 163° South 186 214 7,400  Level Cleveland Center
09:55AM 41.8967 -77.9608 165° South 194 223 7,400  Level Cleveland Center
09:56AM 41.8525 -77.9403 161° South 194 223 7,400  Level Cleveland Center
09:57AM 41.8042 -77.9200 163° South 188 216 7,400  Level Cleveland Center
09:58AM 41.7578 -77.8997 162° South 188 216 7,400  Level Cleveland Center
10:00AM 41.6781 -77.8672 163° South 176 203 7,400  Level New York Center
10:01AM 41.6294 -77.8453 161° South 183 211 7,400  Level New York Center
10:02AM 41.5828 -77.8236 161° South 183 211 7,400  Level New York Center
10:03AM 41.5358 -77.8050 163° South 183 211 7,400  Level New York Center
10:04AM 41.4892 -77.7861 163° South 183 211 7,400  Level New York Center
10:05AM 41.4422 -77.7675 163° South 183 211 7,400  Level New York Center
10:06AM 41.3978 -77.7461 160° South 183 211 7,400  Level New York Center
10:07AM 41.3489 -77.7275 164° South 183 211 7,400  Level New York Center
10:08AM 41.3022 -77.7058 161° South 183 211 7,400  Level New York Center
10:09AM 41.2553 -77.6875 164° South 183 211 7,400  Level New York Center
10:10AM 41.2086 -77.6661 161° South 183 211 7,400 -60 Level New York Center
10:11AM 41.1619 -77.6447 161° South 183 211 7,300  Descending New York Center
10:12AM 41.1150 -77.6261 163° South 183 211 7,400  Climbing New York Center
10:13AM 41.0683 -77.6078 164° South 183 211 7,400  Level New York Center
10:14AM 41.0236 -77.5867 160° South 183 211 7,400  Level New York Center
10:15AM 40.9747 -77.5681 164° South 183 211 7,400  Level New York Center
10:16AM 40.9278 -77.5469 161° South 183 211 7,400  Level New York Center
10:17AM 40.8811 -77.5286 163° South 183 211 7,400 -60 Level New York Center
10:18AM 40.8342 -77.5075 161° South 183 211 7,300 -60 Descending New York Center
10:19AM 40.7875 -77.4892 163° South 183 211 7,300  Level New York Center
10:20AM 40.7425 -77.4711 163° South 183 211 7,400  Climbing New York Center
10:21AM 40.6936 -77.4497 162° South 183 211 7,300 -60 Descending New York Center
10:22AM 40.6492 -77.4292 161° South 183 211 7,300  Level New York Center
10:23AM 40.6022 -77.4108 163° South 183 211 7,300  Level New York Center
10:24AM 40.5511 -77.3922 165° South 183 211 7,300  Level New York Center
10:25AM 40.5083 -77.3717 160° South 183 211 7,300  Level New York Center
10:26AM 40.4553 -77.3531 165° South 183 211 7,300  Level New York Center
10:27AM 40.4147 -77.3328 159° South 183 211 7,300  Level New York Center
10:28AM 40.3619 -77.3086 161° South 183 211 7,300  Level New York Center
10:29AM 40.3211 -77.2911 162° South 183 211 7,300  Level New York Center
10:31AM 40.2253 -77.2497 162° South 183 211 7,300 -60 Level New York Center
10:32AM 40.1744 -77.2286 162° South 183 211 7,200 -240 Descending New York Center
10:33AM 40.1294 -77.2108 163° South 183 211 6,900 -540 Descending New York Center
10:34AM 40.0753 -77.1706 150° Southeast 189 217 6,200 300 Descending New York Center
10:35AM 40.0303 -77.1556 166° South 189 217 7,500 1,260 Climbing New York Center